createdAt,value
2023-05-19T00:01:15.278Z,102858.03
2023-05-19T00:03:52.779Z,102855.41
2023-05-19T00:06:25.361Z,102807.91
2023-05-19T00:08:58.774Z,102868.00
2023-05-19T00:11:29.150Z,102870.50
2023-05-19T00:13:57.650Z,102876.56
2023-05-19T00:16:27.204Z,102842.09
2023-05-19T00:18:57.187Z,102835.13
2023-05-19T00:21:25.339Z,102871.22
2023-05-19T00:23:53.531Z,102823.59
2023-05-19T00:26:22.765Z,102873.50
2023-05-19T00:28:52.379Z,102876.78
2023-05-19T00:31:20.743Z,102877.72
2023-05-19T00:33:48.767Z,102884.56
2023-05-19T00:36:16.736Z,102880.19
2023-05-19T00:38:44.924Z,102849.03
2023-05-19T00:41:13.089Z,102883.69
2023-05-19T00:43:41.215Z,102881.34
2023-05-19T00:46:11.080Z,102877.88
2023-05-19T00:48:39.486Z,102882.25
2023-05-19T00:51:08.152Z,102884.31
2023-05-19T00:53:36.579Z,102858.03
2023-05-19T00:56:05.120Z,102890.94
2023-05-19T00:58:34.467Z,102890.84
2023-05-19T01:01:04.231Z,102893.50
2023-05-19T01:03:36.250Z,102877.84
2023-05-19T01:06:06.041Z,102863.91
2023-05-19T01:08:34.699Z,102891.41
2023-05-19T01:11:02.865Z,102896.50
2023-05-19T01:13:31.589Z,102895.47
2023-05-19T01:16:04.094Z,102893.84
2023-05-19T01:18:42.007Z,102890.44
2023-05-19T01:21:38.622Z,102890.31
2023-05-19T01:24:24.253Z,102851.47
2023-05-19T01:27:25.242Z,102901.00
2023-05-19T01:30:26.755Z,102898.34
2023-05-19T01:33:04.322Z,102858.72
2023-05-19T01:35:33.883Z,102901.41
2023-05-19T01:38:02.766Z,102903.69
2023-05-19T01:40:32.403Z,102897.63
2023-05-19T01:43:03.042Z,102908.63
2023-05-19T01:45:31.640Z,102897.50
2023-05-19T01:48:02.955Z,102895.25
2023-05-19T01:50:31.990Z,102905.66
2023-05-19T01:53:00.770Z,102888.13
2023-05-19T01:55:31.518Z,102901.75
2023-05-19T01:58:11.600Z,102902.50
2023-05-19T02:00:52.674Z,102898.28
2023-05-19T02:03:32.596Z,102851.91
2023-05-19T02:06:11.806Z,102909.47
2023-05-19T02:08:45.349Z,102909.75
2023-05-19T02:11:19.912Z,102909.75
2023-05-19T02:13:51.260Z,102919.22
2023-05-19T02:16:21.004Z,102913.25
2023-05-19T02:18:53.929Z,102915.72
2023-05-19T02:21:22.054Z,102918.91
2023-05-19T02:23:50.337Z,102856.09
2023-05-19T02:26:18.360Z,102916.41
2023-05-19T02:28:46.363Z,102894.75
2023-05-19T02:31:14.425Z,102911.44
2023-05-19T02:33:43.102Z,102912.75
2023-05-19T02:36:14.544Z,102917.34
2023-05-19T02:38:42.784Z,102911.75
2023-05-19T02:41:10.800Z,102909.03
2023-05-19T02:43:38.766Z,102911.97
2023-05-19T02:46:06.947Z,102916.22
2023-05-19T02:48:35.064Z,102881.06
2023-05-19T02:51:03.183Z,102917.44
2023-05-19T02:53:33.470Z,102916.81
2023-05-19T02:56:01.557Z,102859.22
2023-05-19T02:58:32.002Z,102911.88
2023-05-19T03:00:59.788Z,102914.56
2023-05-19T03:03:28.872Z,102911.44
2023-05-19T03:05:56.975Z,102907.66
2023-05-19T03:08:25.036Z,102909.41
2023-05-19T03:10:54.551Z,102915.53
2023-05-19T03:13:22.573Z,102913.84
2023-05-19T03:15:53.297Z,102915.31
2023-05-19T03:18:21.476Z,102917.25
2023-05-19T03:20:49.472Z,102920.16
2023-05-19T03:23:19.040Z,102922.88
2023-05-19T03:25:47.157Z,102927.91
2023-05-19T03:28:17.247Z,102928.84
2023-05-19T03:30:45.317Z,102922.06
2023-05-19T03:33:13.500Z,102931.69
2023-05-19T03:35:41.482Z,102925.09
2023-05-19T03:38:09.494Z,102922.50
2023-05-19T03:40:37.520Z,102928.72
2023-05-19T03:43:05.604Z,102933.06
2023-05-19T03:45:35.016Z,102936.66
2023-05-19T03:48:03.780Z,102933.31
2023-05-19T03:50:32.221Z,102936.09
2023-05-19T03:53:00.567Z,102940.44
2023-05-19T03:55:30.002Z,102895.06
2023-05-19T03:57:58.133Z,102936.56
2023-05-19T04:00:28.790Z,102945.22
2023-05-19T04:02:58.520Z,102940.19
2023-05-19T04:05:26.756Z,102941.16
2023-05-19T04:07:54.774Z,102946.38
2023-05-19T04:10:23.237Z,102939.63
2023-05-19T04:12:51.341Z,102910.47
2023-05-19T04:15:19.404Z,102937.28
2023-05-19T04:17:47.529Z,102935.59
2023-05-19T04:20:17.154Z,102938.16
2023-05-19T04:22:45.207Z,102934.63
2023-05-19T04:25:13.298Z,102933.69
2023-05-19T04:27:41.309Z,102913.03
2023-05-19T04:30:10.704Z,102935.28
2023-05-19T04:32:39.710Z,102929.97
2023-05-19T04:35:08.235Z,102932.47
2023-05-19T04:37:38.551Z,102934.09
2023-05-19T04:40:11.021Z,102934.78
2023-05-19T04:42:41.520Z,102944.22
2023-05-19T04:45:10.022Z,102944.09
2023-05-19T04:47:38.263Z,102941.31
2023-05-19T04:50:07.341Z,102940.41
2023-05-19T04:52:35.453Z,102937.50
2023-05-19T04:55:05.349Z,102932.19
2023-05-19T04:57:33.332Z,102931.31
2023-05-19T05:00:01.299Z,102942.13
2023-05-19T05:02:29.587Z,102939.47
2023-05-19T05:04:58.100Z,102929.00
2023-05-19T05:07:26.260Z,102915.09
2023-05-19T05:09:54.511Z,102937.09
2023-05-19T05:12:24.666Z,102941.22
2023-05-19T05:14:53.134Z,102941.72
2023-05-19T05:17:21.639Z,102944.22
2023-05-19T05:19:50.141Z,102935.53
2023-05-19T05:22:18.747Z,102935.28
2023-05-19T05:24:47.548Z,102940.50
2023-05-19T05:27:15.523Z,102939.81
2023-05-19T05:29:44.954Z,102938.44
2023-05-19T05:32:13.124Z,102941.16
2023-05-19T05:34:42.036Z,102946.88
2023-05-19T05:37:10.109Z,102945.53
2023-05-19T05:39:38.393Z,102945.53
2023-05-19T05:42:09.153Z,102947.09
2023-05-19T05:44:37.228Z,102947.97
2023-05-19T05:47:07.886Z,102948.66
2023-05-19T05:49:40.706Z,102948.16
2023-05-19T05:52:11.371Z,102937.31
2023-05-19T05:54:39.852Z,102957.03
2023-05-19T05:57:08.883Z,102954.34
2023-05-19T05:59:37.302Z,102953.38
2023-05-19T06:02:06.985Z,102949.09
2023-05-19T06:04:38.221Z,102948.50
2023-05-19T06:07:06.409Z,102957.75
2023-05-19T06:09:34.426Z,102959.78
2023-05-19T06:12:02.680Z,102956.59
2023-05-19T06:14:30.743Z,102950.34
2023-05-19T06:16:58.797Z,102956.63
2023-05-19T06:19:28.428Z,102956.81
2023-05-19T06:21:56.640Z,102952.81
2023-05-19T06:24:27.190Z,102961.53
2023-05-19T06:26:55.159Z,102962.66
2023-05-19T06:29:23.179Z,102969.44
2023-05-19T06:31:52.552Z,102960.91
2023-05-19T06:34:21.126Z,102966.59
2023-05-19T06:36:50.520Z,102971.44
2023-05-19T06:39:18.626Z,102967.72
2023-05-19T06:41:46.642Z,102977.75
2023-05-19T06:44:14.913Z,102972.19
2023-05-19T06:46:44.408Z,102966.28
2023-05-19T06:49:12.456Z,102967.53
2023-05-19T06:51:40.488Z,102970.97
2023-05-19T06:54:11.111Z,102966.47
2023-05-19T06:56:39.156Z,102966.59
2023-05-19T06:59:07.302Z,102970.81
2023-05-19T07:01:38.073Z,102975.81
2023-05-19T07:04:06.448Z,102972.69
2023-05-19T07:06:34.687Z,102980.50
2023-05-19T07:09:05.212Z,102978.56
2023-05-19T07:11:34.947Z,102983.72
2023-05-19T07:14:03.260Z,102988.81
2023-05-19T07:16:31.267Z,102989.91
2023-05-19T07:19:01.500Z,102987.06
2023-05-19T07:21:29.579Z,102990.09
2023-05-19T07:23:57.608Z,102987.94
2023-05-19T07:26:26.427Z,102988.66
2023-05-19T07:28:56.003Z,102985.06
2023-05-19T07:31:23.955Z,102984.41
2023-05-19T07:33:56.396Z,102993.34
2023-05-19T07:36:24.571Z,102987.53
2023-05-19T07:38:52.694Z,102960.75
2023-05-19T07:41:21.635Z,102993.97
2023-05-19T07:43:49.726Z,102997.81
2023-05-19T07:46:19.192Z,103000.22
2023-05-19T07:48:47.184Z,102998.97
2023-05-19T07:51:16.192Z,102993.13
2023-05-19T07:53:44.185Z,102997.63
2023-05-19T07:56:12.216Z,102994.22
2023-05-19T07:58:40.348Z,102961.19
2023-05-19T08:01:08.469Z,102991.69
2023-05-19T08:04:05.168Z,102993.22
2023-05-19T08:06:33.456Z,102994.31
2023-05-19T08:09:05.522Z,102990.03
2023-05-19T08:11:33.475Z,102992.75
2023-05-19T08:14:01.547Z,102995.59
2023-05-19T08:16:29.536Z,102985.63
2023-05-19T08:19:02.560Z,102982.22
2023-05-19T08:21:31.341Z,102957.25
2023-05-19T08:23:59.351Z,102979.63
2023-05-19T08:26:27.426Z,102977.88
2023-05-19T08:28:55.512Z,102978.50
2023-05-19T08:31:25.056Z,102974.75
2023-05-19T08:33:53.330Z,102968.56
2023-05-19T08:36:22.961Z,102965.69
2023-05-19T08:38:50.976Z,102975.53
2023-05-19T08:41:19.114Z,102978.00
2023-05-19T08:43:48.351Z,102974.41
2023-05-19T08:46:17.575Z,102975.44
2023-05-19T08:48:52.515Z,102978.81
2023-05-19T08:51:35.026Z,102976.25
2023-05-19T08:54:12.739Z,102961.03
2023-05-19T08:56:41.549Z,102974.06
2023-05-19T08:59:15.304Z,102978.34
2023-05-19T09:01:45.822Z,102966.44
2023-05-19T09:04:14.661Z,102972.28
2023-05-19T09:06:45.735Z,102967.69
2023-05-19T09:09:13.896Z,102970.16
2023-05-19T09:11:41.970Z,102977.09
2023-05-19T09:14:10.056Z,102970.81
2023-05-19T09:16:38.259Z,102968.75
2023-05-19T09:19:08.692Z,102972.81
2023-05-19T09:21:37.374Z,102973.03
2023-05-19T09:24:08.086Z,102969.38
2023-05-19T09:26:39.957Z,102926.84
2023-05-19T09:29:14.678Z,102967.25
2023-05-19T09:31:50.403Z,102966.28
2023-05-19T09:34:18.763Z,102951.25
2023-05-19T09:36:49.522Z,102963.50
2023-05-19T09:39:20.183Z,102960.69
2023-05-19T09:41:48.834Z,102960.09
2023-05-19T09:44:24.237Z,102955.34
2023-05-19T09:46:53.451Z,102956.88
2023-05-19T09:49:22.897Z,102951.78
2023-05-19T09:51:52.916Z,102955.69
2023-05-19T09:54:23.722Z,102950.75
2023-05-19T09:57:00.005Z,102951.72
2023-05-19T09:59:32.124Z,102954.06
2023-05-19T10:02:02.430Z,102953.91
2023-05-19T10:04:31.635Z,102946.25
2023-05-19T10:07:00.643Z,102950.72
2023-05-19T10:09:31.152Z,102959.16
2023-05-19T10:12:00.318Z,102912.28
2023-05-19T10:14:29.572Z,102925.13
2023-05-19T10:16:58.917Z,102957.59
2023-05-19T10:19:28.460Z,102948.78
2023-05-19T10:21:57.387Z,102938.22
2023-05-19T10:24:25.559Z,102943.47
2023-05-19T10:26:59.786Z,102943.53
2023-05-19T10:29:31.384Z,102936.38
2023-05-19T10:32:09.386Z,102945.00
2023-05-19T10:35:08.869Z,102937.09
2023-05-19T10:37:46.305Z,102946.66
2023-05-19T10:40:23.134Z,102937.81
2023-05-19T10:43:04.132Z,102938.50
2023-05-19T10:45:37.390Z,102935.13
2023-05-19T10:48:05.866Z,102936.38
2023-05-19T10:50:38.137Z,102894.16
2023-05-19T10:53:06.148Z,102931.00
2023-05-19T10:55:48.666Z,102937.66
2023-05-19T10:58:41.638Z,102922.41
2023-05-19T11:01:11.082Z,102944.72
2023-05-19T11:03:52.458Z,102942.47
2023-05-19T11:06:27.653Z,102937.38
2023-05-19T11:08:58.841Z,102927.03
2023-05-19T11:11:46.076Z,102931.00
2023-05-19T11:14:16.714Z,102933.91
2023-05-19T11:16:48.409Z,102931.59
2023-05-19T11:19:21.494Z,102925.63
2023-05-19T11:21:52.402Z,102933.28
2023-05-19T11:24:37.169Z,102930.03
2023-05-19T11:27:27.086Z,102928.16
2023-05-19T11:29:59.371Z,102906.88
2023-05-19T11:32:30.988Z,102936.13
2023-05-19T11:34:59.440Z,102900.25
2023-05-19T11:37:28.749Z,102939.66
2023-05-19T11:39:56.893Z,102941.09
2023-05-19T11:42:25.117Z,102934.19
2023-05-19T11:44:57.880Z,102935.59
2023-05-19T11:47:25.958Z,102934.13
2023-05-19T11:49:55.220Z,102937.91
2023-05-19T11:52:24.176Z,102929.84
2023-05-19T11:54:52.653Z,102927.53
2023-05-19T11:57:21.060Z,102909.59
2023-05-19T11:59:53.706Z,102936.19
2023-05-19T12:02:25.156Z,102939.53
2023-05-19T12:04:53.932Z,102931.75
2023-05-19T12:07:24.307Z,102933.28
2023-05-19T12:09:53.681Z,102925.22
2023-05-19T12:12:22.510Z,102925.69
2023-05-19T12:14:53.067Z,102925.38
2023-05-19T12:17:24.086Z,102938.88
2023-05-19T12:19:52.981Z,102940.78
2023-05-19T12:22:21.384Z,102920.19
2023-05-19T12:24:50.477Z,102916.50
2023-05-19T12:27:20.607Z,102935.94
2023-05-19T12:29:51.782Z,102929.78
2023-05-19T12:32:20.268Z,102935.69
2023-05-19T12:34:49.639Z,102935.19
2023-05-19T12:37:17.826Z,102930.28
2023-05-19T12:39:46.048Z,102923.25
2023-05-19T12:42:14.041Z,102938.28
2023-05-19T12:44:46.897Z,102930.06
2023-05-19T12:47:19.766Z,102937.13
2023-05-19T12:50:02.754Z,102928.00
2023-05-19T12:52:32.654Z,102930.72
2023-05-19T12:55:05.055Z,102933.28
2023-05-19T12:57:36.101Z,102931.50
2023-05-19T13:00:07.030Z,102930.72
2023-05-19T13:02:36.811Z,102926.28
2023-05-19T13:05:09.240Z,102931.16
2023-05-19T13:07:37.436Z,102921.56
2023-05-19T13:10:06.677Z,102920.56
2023-05-19T13:12:34.698Z,102917.50
2023-05-19T13:15:02.635Z,102926.22
2023-05-19T13:17:30.684Z,102915.53
2023-05-19T13:19:59.215Z,102929.97
2023-05-19T13:22:28.673Z,102929.41
2023-05-19T13:24:58.973Z,102928.59
2023-05-19T13:27:27.269Z,102928.31
2023-05-19T13:29:55.268Z,102916.34
2023-05-19T13:32:23.441Z,102920.56
2023-05-19T13:34:51.528Z,102912.94
2023-05-19T13:37:19.607Z,102906.97
2023-05-19T13:39:48.971Z,102904.59
2023-05-19T13:42:17.545Z,102911.75
2023-05-19T13:44:46.113Z,102910.19
2023-05-19T13:47:14.553Z,102885.94
2023-05-19T13:49:42.800Z,102903.56
2023-05-19T13:52:11.633Z,102905.59
2023-05-19T13:54:39.737Z,102895.31
2023-05-19T13:57:09.208Z,102902.28
2023-05-19T13:59:43.114Z,102872.81
2023-05-19T14:02:21.293Z,102901.22
2023-05-19T14:04:49.189Z,102894.59
2023-05-19T14:07:17.665Z,102900.13
2023-05-19T14:09:46.317Z,102890.44
2023-05-19T14:12:15.798Z,102902.28
2023-05-19T14:14:43.863Z,102893.31
2023-05-19T14:17:12.191Z,102897.44
2023-05-19T14:19:40.913Z,102896.34
2023-05-19T14:22:09.035Z,102901.56
2023-05-19T14:24:37.265Z,102901.06
2023-05-19T14:27:05.534Z,102910.34
2023-05-19T14:29:35.471Z,102917.91
2023-05-19T14:32:04.183Z,102902.59
2023-05-19T14:34:32.124Z,102896.94
2023-05-19T14:37:00.153Z,102889.28
2023-05-19T14:39:28.211Z,102900.78
2023-05-19T14:41:56.630Z,102880.59
2023-05-19T14:44:24.608Z,102907.59
2023-05-19T14:46:54.084Z,102911.75
2023-05-19T14:49:22.054Z,102910.03
2023-05-19T14:51:50.005Z,102911.63
2023-05-19T14:54:18.114Z,102913.69
2023-05-19T14:56:46.241Z,102923.88
2023-05-19T14:59:14.173Z,102922.09
2023-05-19T15:01:42.533Z,102929.47
2023-05-19T15:04:14.909Z,102924.34
2023-05-19T15:06:43.325Z,102928.53
2023-05-19T15:09:14.347Z,102930.91
2023-05-19T15:11:42.464Z,102935.41
2023-05-19T15:14:10.663Z,102924.34
2023-05-19T15:16:38.717Z,102922.84
2023-05-19T15:19:08.314Z,102929.09
2023-05-19T15:21:40.710Z,102926.31
2023-05-19T15:24:09.070Z,102928.63
2023-05-19T15:26:37.946Z,102930.09
2023-05-19T15:29:05.910Z,102928.66
2023-05-19T15:31:35.877Z,102922.91
2023-05-19T15:34:05.420Z,102924.69
2023-05-19T15:39:18.314Z,102924.84
2023-05-19T15:41:46.417Z,102920.75
2023-05-19T15:44:14.536Z,102915.25
2023-05-19T15:46:42.609Z,102879.41
2023-05-19T15:49:12.683Z,102921.03
2023-05-19T15:51:41.309Z,102916.31
2023-05-19T15:54:09.312Z,102913.47
2023-05-19T15:56:38.730Z,102925.16
2023-05-19T15:59:06.727Z,102936.88
2023-05-19T16:01:34.851Z,102925.00
2023-05-19T16:04:03.916Z,102932.13
2023-05-19T16:06:32.255Z,102932.41
2023-05-19T16:09:00.258Z,102928.16
2023-05-19T16:11:30.112Z,102927.22
2023-05-19T16:13:59.425Z,102936.28
2023-05-19T16:16:27.461Z,102934.56
2023-05-19T16:18:55.554Z,102935.97
2023-05-19T16:21:23.613Z,102930.38
2023-05-19T16:23:51.519Z,102937.81
2023-05-19T16:26:23.007Z,102934.34
2023-05-19T16:28:50.916Z,102936.59
2023-05-19T16:31:20.437Z,102933.25
2023-05-19T16:33:48.515Z,102941.75
2023-05-19T16:36:16.471Z,102948.53
2023-05-19T16:38:44.563Z,102944.81
2023-05-19T16:41:12.996Z,102939.78
2023-05-19T16:43:41.004Z,102948.59
2023-05-19T16:46:12.144Z,102950.94
2023-05-19T16:48:41.811Z,102923.19
2023-05-19T16:51:09.881Z,102952.38
2023-05-19T16:53:41.229Z,102950.03
2023-05-19T16:56:09.215Z,102953.22
2023-05-19T16:58:37.321Z,102940.44
2023-05-19T17:01:05.581Z,102961.38
2023-05-19T17:03:36.453Z,102967.13
2023-05-19T17:06:09.279Z,102956.28
2023-05-19T17:08:37.311Z,102955.78
2023-05-19T17:11:06.384Z,102956.72
2023-05-19T17:13:36.509Z,102957.03
2023-05-19T17:16:04.507Z,102965.34
2023-05-19T17:18:32.647Z,102963.28
2023-05-19T17:21:03.732Z,102961.59
2023-05-19T17:23:33.638Z,102956.56
2023-05-19T17:26:01.979Z,102957.34
2023-05-19T17:28:30.097Z,102958.59
2023-05-19T17:30:58.233Z,102962.47
2023-05-19T17:33:26.456Z,102958.56
2023-05-19T17:35:54.601Z,102962.78
2023-05-19T17:38:22.802Z,102961.94
2023-05-19T17:40:53.590Z,102959.16
2023-05-19T17:43:21.536Z,102965.94
2023-05-19T17:45:49.643Z,102969.09
2023-05-19T17:48:20.057Z,102968.31
2023-05-19T17:50:48.211Z,102971.91
2023-05-19T17:53:17.065Z,102975.16
2023-05-19T17:55:52.030Z,102965.66
2023-05-19T17:58:22.060Z,102979.22
2023-05-19T18:00:51.118Z,102974.31
2023-05-19T18:03:19.748Z,102981.53
2023-05-19T18:05:48.675Z,102977.88
2023-05-19T18:08:17.014Z,102937.56
2023-05-19T18:10:46.051Z,102977.22
2023-05-19T18:13:15.262Z,102973.13
2023-05-19T18:15:44.649Z,102982.25
2023-05-19T18:18:12.747Z,102978.13
2023-05-19T18:20:44.339Z,102989.97
2023-05-19T18:23:12.370Z,102987.59
2023-05-19T18:25:40.352Z,102989.84
2023-05-19T18:28:08.852Z,102991.28
2023-05-19T18:30:36.930Z,102980.94
2023-05-19T18:33:07.321Z,102996.00
2023-05-19T18:35:36.144Z,103009.34
2023-05-19T18:38:04.135Z,102998.16
2023-05-19T18:40:34.300Z,103003.91
2023-05-19T18:43:02.353Z,103011.31
2023-05-19T18:45:30.345Z,103012.28
2023-05-19T18:47:58.306Z,103022.53
2023-05-19T18:50:28.087Z,103024.59
2023-05-19T18:52:56.024Z,103015.03
2023-05-19T18:55:24.479Z,103026.97
2023-05-19T18:57:54.312Z,103026.59
2023-05-19T19:00:22.275Z,103030.22
2023-05-19T19:02:50.289Z,103027.97
2023-05-19T19:05:18.500Z,103031.69
2023-05-19T19:07:50.267Z,103034.44
2023-05-19T19:10:18.517Z,103035.72
2023-05-19T19:12:46.794Z,103037.78
2023-05-19T19:15:15.011Z,103036.72
2023-05-19T19:17:43.670Z,103025.44
2023-05-19T19:20:12.585Z,103040.88
2023-05-19T19:22:40.833Z,103049.84
2023-05-19T19:25:11.086Z,103053.06
2023-05-19T19:27:39.350Z,103055.84
2023-05-19T19:30:08.803Z,103049.69
2023-05-19T19:32:38.903Z,103059.19
2023-05-19T19:35:07.351Z,103062.03
2023-05-19T19:37:35.417Z,103065.75
2023-05-19T19:40:03.761Z,103064.13
2023-05-19T19:42:33.214Z,103064.34
2023-05-19T19:45:01.418Z,103064.16
2023-05-19T19:47:29.624Z,103059.16
2023-05-19T19:49:57.767Z,103068.75
2023-05-19T19:52:26.053Z,103064.34
2023-05-19T19:54:54.153Z,103071.50
2023-05-19T19:57:24.476Z,103028.25
2023-05-19T19:59:58.609Z,103069.53
2023-05-19T20:02:29.077Z,103074.91
2023-05-19T20:04:57.219Z,103075.91
2023-05-19T20:07:25.379Z,103079.44
2023-05-19T20:09:53.427Z,103081.22
2023-05-19T20:12:22.455Z,103076.97
2023-05-19T20:14:51.576Z,103079.47
2023-05-19T20:17:21.081Z,103071.00
2023-05-19T20:19:49.224Z,103077.97
2023-05-19T20:22:17.383Z,103077.16
2023-05-19T20:24:45.492Z,103079.81
2023-05-19T20:31:35.129Z,103086.72
2023-05-19T20:34:04.590Z,103086.78
2023-05-19T20:36:32.864Z,103087.66
2023-05-19T20:39:00.973Z,103090.28
2023-05-19T20:41:29.133Z,103091.19
2023-05-19T20:43:59.985Z,103092.00
2023-05-19T20:46:28.468Z,103095.47
2023-05-19T20:48:58.398Z,103092.03
2023-05-19T20:51:27.811Z,103099.78
2023-05-19T20:53:55.809Z,103098.91
2023-05-19T20:56:23.925Z,103074.81
2023-05-19T20:58:51.865Z,103081.72
2023-05-19T21:01:20.127Z,103093.75
2023-05-19T21:03:48.423Z,103099.75
2023-05-19T21:06:16.434Z,103085.94
2023-05-19T21:08:46.022Z,103097.16
2023-05-19T21:11:14.382Z,103108.28
2023-05-19T21:13:43.359Z,103106.56
2023-05-19T21:16:11.281Z,103105.72
2023-05-19T21:18:42.066Z,103104.81
2023-05-19T21:21:10.052Z,103109.94
2023-05-19T21:23:38.061Z,103107.38
2023-05-19T21:26:07.808Z,103115.97
2023-05-19T21:28:35.876Z,103110.81
2023-05-19T21:31:05.489Z,103078.13
2023-05-19T21:33:33.699Z,103119.34
2023-05-19T21:36:01.804Z,103113.28
2023-05-19T21:38:29.845Z,103067.59
2023-05-19T21:40:58.112Z,103112.50
2023-05-19T21:43:27.912Z,103088.28
2023-05-19T21:45:55.814Z,103114.84
2023-05-19T21:48:23.974Z,103111.41
2023-05-19T21:50:57.844Z,103113.84
2023-05-19T21:53:26.203Z,103112.16
2023-05-19T21:55:54.228Z,103077.69
2023-05-19T21:58:22.807Z,103116.31
2023-05-19T22:00:54.555Z,103095.69
2023-05-19T22:03:22.929Z,103120.47
2023-05-19T22:05:51.799Z,103119.66
2023-05-19T22:08:21.145Z,103118.72
2023-05-19T22:10:50.876Z,103122.06
2023-05-19T22:13:19.075Z,103112.63
2023-05-19T22:15:47.448Z,103119.44
2023-05-19T22:18:16.909Z,103119.47
2023-05-19T22:20:44.943Z,103116.97
2023-05-19T22:23:12.998Z,103113.38
2023-05-19T22:25:41.048Z,103119.38
2023-05-19T22:28:09.167Z,103113.47
2023-05-19T22:30:42.942Z,103107.34
2023-05-19T22:33:11.411Z,103116.72
2023-05-19T22:35:40.916Z,103115.78
2023-05-19T22:38:10.478Z,103078.91
2023-05-19T22:40:38.979Z,103118.41
2023-05-19T22:43:07.151Z,103122.59
2023-05-19T22:45:38.698Z,103100.16
2023-05-19T22:48:07.549Z,103123.28
2023-05-19T22:50:35.579Z,103121.56
2023-05-19T22:53:05.145Z,103120.59
2023-05-19T22:55:33.351Z,103123.09
2023-05-19T22:58:01.495Z,103133.31
2023-05-19T23:00:29.837Z,103124.00
2023-05-19T23:02:58.444Z,103124.94
2023-05-19T23:05:26.694Z,103124.09
2023-05-19T23:07:55.198Z,103129.19
2023-05-19T23:10:24.684Z,103129.00
2023-05-19T23:12:53.340Z,103097.84
2023-05-19T23:15:21.745Z,103124.47
2023-05-19T23:17:49.824Z,103131.31
2023-05-19T23:20:17.965Z,103136.31
2023-05-19T23:22:46.076Z,103132.91
2023-05-19T23:25:14.026Z,103135.44
2023-05-19T23:27:45.574Z,103133.75
2023-05-19T23:30:13.901Z,103136.44
2023-05-19T23:32:42.025Z,103128.88
2023-05-19T23:35:11.789Z,103125.19
2023-05-19T23:37:39.997Z,103126.75
2023-05-19T23:40:09.807Z,103124.13
2023-05-19T23:42:38.074Z,103126.66
2023-05-19T23:45:11.418Z,103120.69
2023-05-19T23:47:39.481Z,103127.38
2023-05-19T23:50:08.125Z,103127.28
2023-05-19T23:52:36.251Z,103135.81
2023-05-19T23:55:04.427Z,103076.31
2023-05-19T23:57:32.647Z,103136.56
